Time;durP1;ratioP1;P1;durP2;ratioP2;P2;SDS_P1;SDS_P2;PMS_P1;PMS_P2;Temp;Humidity;BMP_temperature;BMP_pressure;BME280_temperature;BME280_humidity;BME280_pressure;Samples;Min_cycle;Max_cycle;Signal;HPM_P1;HPM_P2
2023/09/23 00:01:16;;;;;;;1.05;1.02;;;11.90;99.90;;;;;;6064625;23;20173;-85
2023/09/23 00:03:44;;;;;;;0.93;0.90;;;11.90;99.90;;;;;;6064572;23;20187;-85
2023/09/23 00:06:11;;;;;;;3.40;1.20;;;11.90;99.90;;;;;;6066081;23;20185;-85
2023/09/23 00:08:39;;;;;;;1.98;0.80;;;11.90;99.90;;;;;;6065449;23;20658;-85
2023/09/23 00:11:06;;;;;;;1.27;0.88;;;12.00;99.90;;;;;;6039767;23;20248;-84
2023/09/23 00:13:35;;;;;;;2.80;0.98;;;12.10;99.90;;;;;;6065009;23;20177;-85
2023/09/23 00:16:09;;;;;;;1.15;0.90;;;12.10;99.90;;;;;;6017854;23;20211;-85
2023/09/23 00:18:38;;;;;;;2.55;0.82;;;12.10;99.90;;;;;;6065681;23;20499;-85
2023/09/23 00:21:05;;;;;;;1.50;1.00;;;11.90;99.90;;;;;;6066409;23;20173;-84
2023/09/23 00:23:32;;;;;;;3.85;1.20;;;11.90;99.90;;;;;;6065052;23;20625;-85
2023/09/23 00:26:00;;;;;;;2.92;1.15;;;11.80;99.90;;;;;;6065609;23;20189;-85
2023/09/23 00:28:30;;;;;;;1.20;1.10;;;11.80;99.90;;;;;;6040762;23;20632;-85
2023/09/23 00:31:05;;;;;;;1.42;1.10;;;11.80;99.90;;;;;;6066432;23;20183;-85
2023/09/23 00:33:32;;;;;;;2.63;1.17;;;11.80;99.90;;;;;;6065869;23;20169;-85
2023/09/23 00:36:01;;;;;;;1.08;1.00;;;11.80;99.90;;;;;;6065608;23;20208;-85
2023/09/23 00:38:28;;;;;;;4.07;1.00;;;11.80;99.90;;;;;;6065814;23;20184;-84
2023/09/23 00:40:57;;;;;;;1.65;1.05;;;11.80;99.90;;;;;;6017726;23;20213;-85
2023/09/23 00:43:24;;;;;;;1.30;1.20;;;11.80;99.90;;;;;;6065752;23;20788;-85
2023/09/23 00:45:54;;;;;;;3.92;1.00;;;11.90;99.90;;;;;;6066162;23;20188;-85
2023/09/23 00:48:22;;;;;;;2.50;1.20;;;11.90;99.90;;;;;;6038531;23;20270;-85
2023/09/23 00:50:50;;;;;;;2.17;0.93;;;11.90;99.90;;;;;;6064295;23;20256;-85
2023/09/23 00:53:21;;;;;;;1.40;1.17;;;11.90;99.90;;;;;;6066054;23;20269;-85
2023/09/23 00:55:52;;;;;;;2.20;2.00;;;11.90;99.90;;;;;;6062676;23;20245;-85
2023/09/23 00:58:21;;;;;;;3.90;1.10;;;11.90;99.90;;;;;;6064257;23;20193;-85
2023/09/23 01:00:48;;;;;;;1.40;1.00;;;11.90;99.90;;;;;;6065543;23;20182;-85
2023/09/23 01:03:16;;;;;;;1.17;1.10;;;11.80;99.90;;;;;;6040826;23;20180;-85
2023/09/23 01:05:44;;;;;;;1.10;1.00;;;11.80;99.90;;;;;;6041132;23;20256;-85
2023/09/23 01:08:25;;;;;;;4.43;1.00;;;11.90;99.90;;;;;;6066293;23;20181;-85
2023/09/23 01:10:53;;;;;;;0.80;0.80;;;11.90;99.90;;;;;;6045909;23;20161;-85
2023/09/23 01:13:23;;;;;;;1.83;1.00;;;12.00;99.90;;;;;;6066544;23;20662;-85
2023/09/23 01:15:51;;;;;;;1.48;0.90;;;12.00;99.90;;;;;;6066992;23;20193;-85
2023/09/23 01:18:19;;;;;;;1.50;1.35;;;12.00;99.90;;;;;;6067124;23;20499;-85
2023/09/23 01:20:48;;;;;;;1.02;0.98;;;12.00;99.90;;;;;;6042697;23;20224;-85
2023/09/23 01:23:17;;;;;;;1.23;0.90;;;12.10;99.90;;;;;;6067016;23;20184;-85
2023/09/23 01:25:44;;;;;;;1.10;1.00;;;12.00;99.90;;;;;;6066603;23;20185;-85
2023/09/23 01:28:12;;;;;;;1.00;0.93;;;12.00;99.90;;;;;;6067915;23;20174;-85
2023/09/23 01:30:40;;;;;;;1.00;0.90;;;12.10;99.90;;;;;;6042438;23;20182;-85
2023/09/23 01:33:08;;;;;;;2.70;0.80;;;12.10;99.90;;;;;;6042750;23;20256;-85
2023/09/23 01:35:36;;;;;;;2.10;0.95;;;12.20;99.90;;;;;;6040430;23;20197;-85
2023/09/23 01:38:03;;;;;;;1.13;0.90;;;12.30;99.90;;;;;;6067094;23;20181;-85
2023/09/23 01:40:33;;;;;;;1.63;0.98;;;12.30;99.90;;;;;;6067411;23;20181;-85
2023/09/23 01:43:01;;;;;;;1.17;0.90;;;12.20;99.90;;;;;;6040877;23;20178;-85
2023/09/23 01:45:28;;;;;;;1.35;0.80;;;12.20;99.90;;;;;;6067442;23;20192;-85
2023/09/23 01:47:56;;;;;;;1.75;0.90;;;12.30;99.90;;;;;;6042983;23;20497;-85
2023/09/23 01:50:24;;;;;;;2.05;1.75;;;12.40;99.90;;;;;;6063707;23;20261;-85
2023/09/23 01:52:51;;;;;;;1.50;0.85;;;12.40;99.90;;;;;;6063899;23;20174;-85
2023/09/23 01:55:19;;;;;;;2.13;1.15;;;12.30;99.90;;;;;;6066987;23;20182;-85
2023/09/23 01:57:49;;;;;;;0.90;0.90;;;12.20;99.90;;;;;;6038495;23;20184;-85
2023/09/23 02:00:18;;;;;;;1.27;0.75;;;12.10;99.90;;;;;;6067489;23;20184;-85
2023/09/23 02:02:45;;;;;;;1.00;1.00;;;12.00;99.90;;;;;;6066940;23;20173;-85
2023/09/23 02:05:13;;;;;;;1.92;0.93;;;12.00;99.90;;;;;;6067164;23;20177;-85
2023/09/23 02:07:41;;;;;;;1.30;1.20;;;12.00;99.90;;;;;;6042010;23;20188;-86
2023/09/23 02:10:10;;;;;;;3.67;1.00;;;12.00;99.90;;;;;;6066999;23;20676;-85
2023/09/23 02:12:37;;;;;;;1.40;1.30;;;12.10;99.90;;;;;;6017941;23;20193;-85
2023/09/23 02:15:07;;;;;;;1.73;1.08;;;12.20;99.90;;;;;;6014734;23;20177;-85
2023/09/23 02:17:36;;;;;;;0.95;0.85;;;12.20;99.90;;;;;;6067437;23;20201;-85
2023/09/23 02:20:03;;;;;;;2.42;1.00;;;12.20;99.90;;;;;;6066377;23;20182;-85
2023/09/23 02:22:30;;;;;;;1.23;1.13;;;12.10;99.90;;;;;;6067138;23;20229;-85
2023/09/23 02:24:57;;;;;;;1.48;1.08;;;12.10;99.90;;;;;;6066985;23;20177;-85
2023/09/23 02:27:24;;;;;;;1.25;1.00;;;12.10;99.90;;;;;;6066781;23;20257;-85
2023/09/23 02:29:51;;;;;;;2.15;0.90;;;12.20;99.90;;;;;;6041078;23;20252;-85
2023/09/23 02:32:20;;;;;;;1.38;1.08;;;12.20;99.90;;;;;;6067245;23;20236;-85
2023/09/23 02:34:46;;;;;;;1.55;1.00;;;12.10;99.90;;;;;;6065960;23;20184;-85
2023/09/23 02:37:14;;;;;;;1.45;1.00;;;12.10;99.90;;;;;;6066332;23;20286;-85
2023/09/23 02:39:41;;;;;;;1.35;0.88;;;12.10;99.90;;;;;;6066170;23;20192;-85
2023/09/23 02:42:10;;;;;;;1.15;1.05;;;12.10;99.90;;;;;;6067254;23;20185;-84
2023/09/23 02:44:37;;;;;;;1.08;1.00;;;12.10;99.90;;;;;;6042248;23;20173;-85
2023/09/23 02:47:04;;;;;;;1.52;1.08;;;12.10;99.90;;;;;;6067227;23;20181;-85
2023/09/23 02:49:33;;;;;;;1.15;1.02;;;12.10;99.90;;;;;;6066821;23;20256;-85
2023/09/23 02:52:00;;;;;;;1.40;1.02;;;12.10;99.90;;;;;;6066707;23;20194;-85
2023/09/23 02:54:27;;;;;;;0.98;0.88;;;12.10;99.90;;;;;;6066489;23;20195;-84
2023/09/23 02:56:53;;;;;;;2.40;1.20;;;12.20;99.90;;;;;;6041561;23;20193;-85
2023/09/23 02:59:26;;;;;;;1.35;1.00;;;12.20;99.90;;;;;;6066546;23;20173;-85
2023/09/23 03:01:53;;;;;;;0.90;0.80;;;12.30;99.90;;;;;;6067136;23;20169;-85
2023/09/23 03:04:23;;;;;;;1.30;1.00;;;12.30;99.90;;;;;;6066653;23;20212;-85
2023/09/23 03:06:56;;;;;;;1.10;0.88;;;12.30;99.90;;;;;;6066869;23;20617;-85
2023/09/23 03:09:25;;;;;;;2.40;1.02;;;12.30;99.90;;;;;;6066708;23;20173;-85
2023/09/23 03:11:55;;;;;;;2.92;1.10;;;12.20;99.90;;;;;;6066637;23;20177;-85
2023/09/23 03:14:25;;;;;;;1.52;1.27;;;12.20;99.90;;;;;;6041662;23;20189;-85
2023/09/23 03:16:53;;;;;;;1.23;0.80;;;12.30;99.90;;;;;;6066763;23;20205;-85
2023/09/23 03:19:24;;;;;;;1.20;1.10;;;12.20;99.90;;;;;;6059491;23;20186;-85
2023/09/23 03:21:55;;;;;;;1.13;1.00;;;12.20;99.90;;;;;;6065638;23;20189;-85
2023/09/23 03:24:25;;;;;;;2.58;0.90;;;12.20;99.90;;;;;;6065588;23;20229;-84
2023/09/23 03:26:53;;;;;;;1.15;0.88;;;12.20;99.90;;;;;;6066895;23;20691;-85
2023/09/23 03:29:20;;;;;;;2.10;1.00;;;12.20;99.90;;;;;;6066538;23;20177;-84
2023/09/23 03:31:47;;;;;;;1.10;1.00;;;12.10;99.90;;;;;;6066401;23;20178;-85
2023/09/23 03:34:14;;;;;;;1.27;1.02;;;12.10;99.90;;;;;;6040422;23;20184;-85
2023/09/23 03:36:41;;;;;;;1.90;0.98;;;12.10;99.90;;;;;;6065294;23;20201;-85
2023/09/23 03:39:10;;;;;;;2.20;0.90;;;12.10;99.90;;;;;;6041241;23;20178;-85
2023/09/23 03:41:38;;;;;;;1.27;0.90;;;12.20;99.90;;;;;;6041142;23;20188;-85
2023/09/23 03:44:05;;;;;;;2.10;1.10;;;12.20;99.90;;;;;;6065560;23;20178;-85
2023/09/23 03:46:33;;;;;;;1.67;1.17;;;12.20;99.90;;;;;;6040710;23;20177;-85
2023/09/23 03:49:00;;;;;;;1.00;0.82;;;12.20;99.90;;;;;;6036779;23;20185;-85
2023/09/23 03:51:27;;;;;;;3.35;1.10;;;12.20;99.90;;;;;;6040648;23;20280;-85
2023/09/23 03:53:53;;;;;;;1.40;0.95;;;12.20;99.90;;;;;;6066224;23;20626;-85
2023/09/23 03:56:24;;;;;;;1.88;1.10;;;12.20;99.90;;;;;;6040288;23;20523;-85
2023/09/23 03:58:51;;;;;;;0.88;0.88;;;12.20;99.90;;;;;;6065422;23;20165;-85
2023/09/23 04:01:20;;;;;;;1.15;1.05;;;12.20;99.90;;;;;;6016548;23;20177;-85
2023/09/23 04:03:47;;;;;;;1.63;1.08;;;12.20;99.90;;;;;;6040217;23;20173;-85
2023/09/23 04:06:13;;;;;;;2.05;1.23;;;12.20;99.90;;;;;;6064323;23;20688;-85
2023/09/23 04:08:40;;;;;;;1.42;1.00;;;12.30;99.90;;;;;;6065623;23;20192;-85
2023/09/23 04:11:08;;;;;;;1.80;1.20;;;12.30;99.90;;;;;;6039905;23;20696;-85
2023/09/23 04:13:37;;;;;;;3.10;1.10;;;12.20;99.90;;;;;;6040630;23;20181;-85
2023/09/23 04:16:05;;;;;;;1.80;1.02;;;12.20;99.90;;;;;;6065601;23;20173;-85
2023/09/23 04:18:32;;;;;;;1.55;1.20;;;12.20;99.90;;;;;;6035369;23;20276;-85
2023/09/23 04:21:01;;;;;;;2.47;2.13;;;12.20;99.90;;;;;;6031774;23;20177;-85
2023/09/23 04:23:27;;;;;;;1.08;1.00;;;12.20;99.90;;;;;;6036735;23;20180;-85
2023/09/23 04:25:54;;;;;;;2.58;1.35;;;12.20;99.90;;;;;;6034965;23;20173;-84
2023/09/23 04:28:22;;;;;;;2.13;1.30;;;12.30;99.90;;;;;;6028254;23;20181;-85
2023/09/23 04:30:53;;;;;;;1.25;1.00;;;12.30;99.90;;;;;;6037946;23;20202;-85
2023/09/23 04:33:20;;;;;;;1.10;1.00;;;12.30;99.90;;;;;;6037458;23;20189;-85
2023/09/23 04:35:47;;;;;;;2.33;2.22;;;12.50;99.90;;;;;;6031353;23;20178;-85
2023/09/23 04:38:14;;;;;;;2.85;1.25;;;12.40;99.90;;;;;;6037340;23;20194;-84
2023/09/23 04:40:41;;;;;;;3.00;1.50;;;12.50;99.90;;;;;;6036411;23;20212;-85
2023/09/23 04:43:10;;;;;;;4.03;1.20;;;12.40;99.90;;;;;;6006408;23;20189;-85
2023/09/23 04:45:37;;;;;;;2.30;1.60;;;12.40;99.90;;;;;;6038592;23;20182;-85
2023/09/23 04:48:06;;;;;;;2.97;1.27;;;12.40;99.90;;;;;;6039078;23;20186;-85
2023/09/23 04:50:34;;;;;;;1.95;1.10;;;12.40;99.90;;;;;;6038984;23;20205;-85
2023/09/23 04:53:02;;;;;;;1.67;1.20;;;12.40;99.90;;;;;;6036989;23;20181;-85
2023/09/23 04:55:29;;;;;;;2.38;1.40;;;12.40;99.90;;;;;;6036945;23;20261;-85
2023/09/23 04:57:56;;;;;;;1.88;1.42;;;12.40;99.90;;;;;;6038431;23;20194;-84
2023/09/23 05:00:25;;;;;;;1.48;1.38;;;12.40;99.90;;;;;;6014249;23;20178;-85
2023/09/23 05:02:52;;;;;;;3.50;1.42;;;12.30;99.90;;;;;;6038725;23;20180;-84
2023/09/23 05:05:21;;;;;;;2.28;1.33;;;12.40;99.90;;;;;;6037945;23;20174;-85
2023/09/23 05:07:48;;;;;;;4.05;1.48;;;12.50;99.90;;;;;;6038445;23;20253;-85
2023/09/23 05:10:14;;;;;;;1.98;1.48;;;12.50;99.90;;;;;;6038808;23;20178;-85
2023/09/23 05:12:44;;;;;;;1.90;1.50;;;12.50;99.90;;;;;;6038275;23;20205;-84
2023/09/23 05:15:14;;;;;;;2.13;1.40;;;12.50;99.90;;;;;;6036460;23;20182;-84
2023/09/23 05:17:43;;;;;;;2.22;1.48;;;12.50;99.90;;;;;;6038746;23;20221;-85
2023/09/23 05:20:15;;;;;;;3.60;1.50;;;12.40;99.90;;;;;;6037723;23;20186;-84
2023/09/23 05:22:44;;;;;;;1.45;1.30;;;12.30;99.90;;;;;;6038411;23;20750;-85
2023/09/23 05:25:11;;;;;;;1.35;1.25;;;12.50;99.90;;;;;;6036439;23;20556;-85
2023/09/23 05:27:39;;;;;;;3.53;1.45;;;12.50;99.90;;;;;;6037217;23;20186;-85
2023/09/23 05:30:08;;;;;;;4.22;1.65;;;12.50;99.90;;;;;;6038013;23;20174;-85
2023/09/23 05:32:37;;;;;;;2.20;1.67;;;12.50;99.90;;;;;;6036449;23;20182;-84
2023/09/23 05:35:07;;;;;;;2.67;1.50;;;12.30;99.90;;;;;;6036939;23;20178;-85
2023/09/23 05:37:34;;;;;;;1.55;1.45;;;12.40;99.90;;;;;;6036942;23;20990;-85
2023/09/23 05:40:09;;;;;;;1.95;1.63;;;12.50;99.90;;;;;;6038857;23;20725;-85
2023/09/23 05:42:38;;;;;;;2.03;1.70;;;12.50;99.90;;;;;;6038580;23;20245;-84
2023/09/23 05:45:06;;;;;;;3.83;1.70;;;12.50;99.90;;;;;;6038462;23;20260;-85
2023/09/23 05:47:32;;;;;;;2.38;1.40;;;12.50;99.90;;;;;;6038378;23;20186;-85
2023/09/23 05:49:59;;;;;;;2.33;1.58;;;12.40;99.90;;;;;;6038943;23;20693;-87
2023/09/23 05:52:26;;;;;;;2.20;1.63;;;12.40;99.90;;;;;;6037675;23;20200;-86
2023/09/23 05:54:53;;;;;;;2.83;1.50;;;12.30;99.90;;;;;;6038338;23;20174;-87
2023/09/23 05:57:21;;;;;;;3.22;1.80;;;12.30;99.90;;;;;;6035922;23;20220;-87
2023/09/23 05:59:48;;;;;;;3.58;1.65;;;12.30;99.90;;;;;;6038362;23;20181;-87
2023/09/23 06:02:15;;;;;;;1.60;1.45;;;12.40;99.90;;;;;;6035529;23;20180;-86
2023/09/23 06:04:41;;;;;;;3.72;1.70;;;12.50;99.90;;;;;;6035661;23;20182;-87
2023/09/23 06:07:09;;;;;;;2.17;1.60;;;12.60;99.90;;;;;;6036805;23;20174;-87
2023/09/23 06:09:36;;;;;;;1.85;1.50;;;12.50;99.90;;;;;;6035022;23;20185;-89
2023/09/23 06:12:02;;;;;;;2.95;1.70;;;12.50;99.90;;;;;;6038108;23;20178;-86
2023/09/23 06:14:31;;;;;;;2.45;1.67;;;12.50;99.90;;;;;;6037775;23;20200;-86
2023/09/23 06:16:57;;;;;;;2.65;1.70;;;12.40;99.90;;;;;;6038092;23;20194;-85
2023/09/23 06:19:24;;;;;;;1.90;1.60;;;12.40;99.90;;;;;;6057875;23;20268;-87
2023/09/23 06:21:51;;;;;;;2.30;1.70;;;12.40;99.90;;;;;;6066067;23;20676;-86
2023/09/23 06:24:18;;;;;;;3.22;1.80;;;12.40;99.90;;;;;;6065258;23;20643;-87
2023/09/23 06:26:45;;;;;;;4.78;1.98;;;12.40;99.90;;;;;;6066193;23;20173;-90
2023/09/23 06:29:14;;;;;;;2.53;1.90;;;12.40;99.90;;;;;;6067199;23;20260;-85
2023/09/23 06:31:42;;;;;;;2.10;1.83;;;12.40;99.90;;;;;;6067075;23;20178;-88
2023/09/23 06:34:09;;;;;;;2.55;2.35;;;12.50;99.90;;;;;;6065710;23;20177;-87
2023/09/23 06:36:36;;;;;;;2.15;1.67;;;12.50;99.90;;;;;;6066535;23;20174;-88
2023/09/23 06:39:03;;;;;;;4.00;2.00;;;12.70;99.90;;;;;;6040939;23;20951;-88
2023/09/23 06:41:30;;;;;;;2.28;1.60;;;12.70;99.90;;;;;;6040532;23;20181;-88
2023/09/23 06:43:57;;;;;;;1.90;1.70;;;12.70;99.90;;;;;;6065127;23;20745;-89
2023/09/23 06:46:24;;;;;;;5.07;1.50;;;12.80;99.90;;;;;;6066348;23;20180;-87
2023/09/23 06:48:52;;;;;;;1.98;1.50;;;12.80;99.90;;;;;;6017372;23;20180;-89
2023/09/23 06:51:19;;;;;;;2.20;1.88;;;12.70;99.90;;;;;;6066230;23;20196;-90
2023/09/23 06:53:47;;;;;;;2.15;1.70;;;12.60;99.90;;;;;;6065592;23;20177;-89
2023/09/23 06:56:13;;;;;;;2.58;1.70;;;12.70;99.90;;;;;;6064457;23;20184;-87
2023/09/23 06:58:40;;;;;;;1.70;1.40;;;12.80;99.90;;;;;;6066464;23;20212;-88
2023/09/23 07:01:07;;;;;;;2.08;1.70;;;12.80;99.90;;;;;;6066392;23;20173;-89
2023/09/23 07:03:34;;;;;;;3.83;1.80;;;12.70;99.90;;;;;;6065086;23;20513;-88
2023/09/23 07:06:02;;;;;;;1.90;1.60;;;12.70;99.90;;;;;;6066371;23;20625;-88
2023/09/23 07:08:29;;;;;;;2.25;1.67;;;12.70;99.90;;;;;;6066405;23;20256;-90
2023/09/23 07:10:56;;;;;;;3.70;1.65;;;12.90;99.90;;;;;;6066320;23;20195;-87
2023/09/23 07:13:23;;;;;;;3.25;1.60;;;13.10;99.20;;;;;;6041862;23;20186;-88
2023/09/23 07:15:50;;;;;;;2.17;1.77;;;13.10;99.20;;;;;;6066809;23;20245;-87
2023/09/23 07:18:17;;;;;;;1.50;1.40;;;13.20;98.00;;;;;;6035209;23;20206;-88
2023/09/23 07:20:44;;;;;;;1.55;1.45;;;13.20;98.70;;;;;;6036123;23;20188;-87
2023/09/23 07:23:12;;;;;;;1.85;1.63;;;13.30;98.20;;;;;;6035400;23;20175;-85
2023/09/23 07:25:40;;;;;;;2.03;1.70;;;13.10;98.30;;;;;;6035573;23;20550;-86
2023/09/23 07:28:07;;;;;;;4.32;1.58;;;13.10;98.80;;;;;;6038222;23;20692;-85
2023/09/23 07:30:35;;;;;;;2.50;1.50;;;13.30;96.50;;;;;;6037344;23;20644;-85
2023/09/23 07:33:02;;;;;;;2.65;1.35;;;13.30;96.50;;;;;;6037481;23;20221;-85
2023/09/23 07:35:32;;;;;;;2.33;1.63;;;13.40;96.50;;;;;;6036254;23;20178;-84
2023/09/23 07:38:00;;;;;;;3.35;1.60;;;13.60;95.90;;;;;;6037014;23;20247;-85
2023/09/23 07:40:29;;;;;;;1.60;1.42;;;13.70;96.60;;;;;;6035861;23;20178;-85
2023/09/23 07:42:56;;;;;;;1.60;1.50;;;13.50;97.50;;;;;;6036292;23;20182;-85
2023/09/23 07:45:23;;;;;;;1.67;1.40;;;13.30;98.60;;;;;;6036600;23;20519;-85
2023/09/23 07:47:50;;;;;;;2.28;1.60;;;13.30;99.20;;;;;;6034052;23;20200;-84
2023/09/23 07:50:17;;;;;;;2.50;1.60;;;13.40;99.10;;;;;;6033476;23;20617;-86
2023/09/23 07:52:44;;;;;;;2.08;1.60;;;13.50;98.70;;;;;;6034555;23;20209;-86
2023/09/23 07:55:11;;;;;;;1.48;1.38;;;13.40;98.50;;;;;;6034383;23;20610;-87
2023/09/23 07:57:43;;;;;;;2.05;1.60;;;13.30;98.80;;;;;;6032810;23;20201;-86
2023/09/23 08:00:11;;;;;;;1.48;1.38;;;13.40;99.10;;;;;;6033382;23;20245;-86
2023/09/23 08:02:38;;;;;;;1.60;1.48;;;13.50;99.20;;;;;;6034264;23;20181;-86
2023/09/23 08:05:06;;;;;;;2.15;1.70;;;13.40;98.40;;;;;;6033165;23;20754;-86
2023/09/23 08:07:33;;;;;;;2.13;1.50;;;13.50;97.60;;;;;;6032597;23;20181;-87
2023/09/23 08:10:02;;;;;;;1.60;1.50;;;13.50;98.10;;;;;;6030918;23;20703;-86
2023/09/23 08:12:29;;;;;;;2.20;1.55;;;13.50;98.50;;;;;;6030395;23;20206;-86
2023/09/23 08:14:57;;;;;;;1.52;1.42;;;13.50;98.00;;;;;;6036135;23;20676;-86
2023/09/23 08:17:24;;;;;;;2.10;1.40;;;13.40;97.80;;;;;;6035678;23;20197;-84
2023/09/23 08:19:53;;;;;;;1.88;1.25;;;13.60;97.30;;;;;;6058511;23;20647;-84
2023/09/23 08:22:20;;;;;;;3.03;1.40;;;13.70;97.20;;;;;;6017446;23;20256;-85
2023/09/23 08:24:47;;;;;;;2.35;1.17;;;13.80;98.10;;;;;;6066855;23;20238;-84
2023/09/23 08:27:14;;;;;;;2.10;1.40;;;13.80;97.60;;;;;;6067689;23;20173;-86
2023/09/23 08:29:41;;;;;;;3.22;1.30;;;14.00;96.70;;;;;;6066854;23;20189;-85
2023/09/23 08:32:09;;;;;;;2.55;1.20;;;14.20;95.60;;;;;;6067481;23;20173;-83
2023/09/23 08:34:38;;;;;;;2.13;1.20;;;14.10;95.00;;;;;;6042475;23;20538;-85
2023/09/23 08:37:05;;;;;;;2.17;1.20;;;13.90;95.90;;;;;;6066233;23;20173;-83
2023/09/23 08:39:32;;;;;;;1.55;1.45;;;14.00;95.90;;;;;;6066332;23;20655;-89
2023/09/23 08:42:03;;;;;;;4.13;1.45;;;13.90;96.30;;;;;;6067222;23;20173;-85
2023/09/23 08:44:33;;;;;;;1.60;1.10;;;13.80;96.60;;;;;;6040856;23;20559;-85
2023/09/23 08:47:00;;;;;;;2.22;1.83;;;14.00;95.80;;;;;;6066279;23;20629;-84
2023/09/23 08:49:30;;;;;;;1.73;1.50;;;13.80;96.60;;;;;;6065622;23;20181;-87
2023/09/23 08:51:57;;;;;;;1.77;1.20;;;13.80;96.60;;;;;;6040832;23;20200;-85
2023/09/23 08:54:25;;;;;;;2.30;1.50;;;13.80;96.60;;;;;;6064424;23;20181;-85
2023/09/23 08:56:55;;;;;;;1.50;1.40;;;13.90;96.60;;;;;;6063957;23;20213;-85
2023/09/23 08:59:22;;;;;;;2.55;1.90;;;14.10;96.70;;;;;;6066195;23;20633;-85
2023/09/23 09:01:49;;;;;;;1.70;1.23;;;14.20;96.70;;;;;;6041557;23;20177;-84
2023/09/23 09:04:16;;;;;;;1.35;1.23;;;14.50;94.00;;;;;;6065314;23;20183;-86
2023/09/23 09:06:52;;;;;;;2.95;1.52;;;14.50;93.70;;;;;;6065066;23;20185;-85
2023/09/23 09:09:19;;;;;;;4.57;2.10;;;14.60;93.20;;;;;;6069923;23;20177;-86
2023/09/23 09:11:47;;;;;;;2.58;1.52;;;14.80;92.00;;;;;;6067434;23;20177;-84
2023/09/23 09:14:15;;;;;;;1.83;1.50;;;14.80;92.20;;;;;;6066023;23;20256;-85
2023/09/23 09:16:43;;;;;;;2.15;1.35;;;15.10;90.60;;;;;;6065181;23;20169;-84
2023/09/23 09:19:09;;;;;;;1.70;1.10;;;15.00;90.60;;;;;;6065577;23;20825;-85
2023/09/23 09:21:37;;;;;;;2.45;1.20;;;14.90;90.60;;;;;;6040162;23;20288;-84
2023/09/23 09:24:06;;;;;;;1.63;1.17;;;14.80;90.90;;;;;;6066458;23;20181;-86
2023/09/23 09:26:35;;;;;;;3.78;1.23;;;14.80;91.40;;;;;;6067597;23;20798;-84
2023/09/23 09:29:03;;;;;;;1.80;1.50;;;15.00;91.50;;;;;;6040765;23;20173;-82
2023/09/23 09:31:34;;;;;;;1.40;1.30;;;15.00;88.70;;;;;;6066834;23;20178;-83
2023/09/23 09:34:06;;;;;;;2.30;1.50;;;15.20;84.70;;;;;;6065374;23;20173;-82
2023/09/23 09:36:36;;;;;;;2.35;1.05;;;15.30;84.50;;;;;;6041709;23;20181;-81
2023/09/23 09:39:09;;;;;;;1.33;1.23;;;15.00;83.90;;;;;;6066060;23;20193;-83
2023/09/23 09:41:46;;;;;;;2.25;1.35;;;14.90;86.40;;;;;;6066384;23;20613;-84
2023/09/23 09:44:15;;;;;;;2.25;1.17;;;14.90;87.80;;;;;;6065397;23;20161;-84
2023/09/23 09:46:43;;;;;;;1.33;1.20;;;14.80;86.90;;;;;;6067730;23;20503;-84
2023/09/23 09:49:11;;;;;;;1.20;1.10;;;14.70;88.00;;;;;;6041742;23;20185;-84
2023/09/23 09:51:40;;;;;;;1.92;1.05;;;14.90;89.50;;;;;;6066562;23;20201;-85
2023/09/23 09:54:11;;;;;;;4.53;1.77;;;15.20;85.60;;;;;;6065214;23;20205;-84
2023/09/23 09:56:39;;;;;;;2.22;1.30;;;15.80;79.30;;;;;;6066631;23;20178;-85
2023/09/23 09:59:06;;;;;;;2.35;1.10;;;16.10;78.10;;;;;;6066621;23;20207;-92
2023/09/23 10:01:34;;;;;;;2.28;1.33;;;16.00;78.70;;;;;;6040978;23;20189;-85
2023/09/23 10:04:01;;;;;;;2.53;1.60;;;15.80;81.50;;;;;;6017524;23;20240;-86
2023/09/23 10:06:28;;;;;;;1.50;1.40;;;15.70;77.80;;;;;;6065820;23;20256;-88
2023/09/23 10:08:57;;;;;;;1.13;1.00;;;15.50;82.80;;;;;;6067539;23;20177;-82
2023/09/23 10:11:34;;;;;;;1.92;1.10;;;15.20;79.20;;;;;;6066508;23;20181;-84
2023/09/23 10:14:12;;;;;;;2.35;1.10;;;15.20;80.20;;;;;;6066468;23;20166;-85
2023/09/23 10:16:39;;;;;;;1.15;1.02;;;15.40;80.50;;;;;;6066819;23;20169;-85
2023/09/23 10:19:11;;;;;;;2.10;1.17;;;15.70;82.80;;;;;;6065789;23;20208;-85
2023/09/23 10:21:39;;;;;;;1.83;1.35;;;16.00;78.10;;;;;;6041195;23;20178;-85
2023/09/23 10:24:08;;;;;;;1.63;1.33;;;16.10;76.60;;;;;;6066169;23;20217;-86
2023/09/23 10:26:43;;;;;;;2.35;1.30;;;16.00;77.20;;;;;;6065671;23;20645;-87
2023/09/23 10:29:10;;;;;;;1.40;1.20;;;16.00;72.90;;;;;;6065283;23;20172;-85
2023/09/23 10:31:38;;;;;;;2.17;1.42;;;16.20;72.10;;;;;;6039321;23;20185;-85
2023/09/23 10:34:06;;;;;;;1.40;1.30;;;16.60;58.70;;;;;;6039835;23;20181;-88
2023/09/23 10:36:33;;;;;;;1.25;1.10;;;16.50;60.10;;;;;;6065689;23;20209;-87
2023/09/23 10:39:01;;;;;;;2.20;1.42;;;16.40;60.40;;;;;;6066052;23;20526;-86
2023/09/23 10:41:36;;;;;;;2.08;1.20;;;16.50;55.60;;;;;;6066132;23;20507;-86
2023/09/23 10:44:03;;;;;;;1.50;1.25;;;16.40;60.00;;;;;;6063759;23;20497;-86
2023/09/23 10:46:31;;;;;;;1.33;1.10;;;16.40;64.30;;;;;;6063310;23;20181;-86
2023/09/23 10:48:59;;;;;;;2.33;1.20;;;16.40;52.80;;;;;;6040424;23;20199;-86
2023/09/23 10:51:27;;;;;;;1.77;1.27;;;16.30;56.10;;;;;;6039449;23;20197;-86
2023/09/23 10:53:55;;;;;;;1.73;1.30;;;16.50;56.10;;;;;;6064867;23;20183;-87
2023/09/23 10:56:22;;;;;;;2.65;1.40;;;16.30;56.80;;;;;;6065522;23;20211;-87
2023/09/23 10:58:52;;;;;;;1.83;1.50;;;16.40;55.90;;;;;;6065368;23;20233;-87
2023/09/23 11:01:20;;;;;;;1.90;1.30;;;16.50;49.30;;;;;;6062475;23;20189;-86
2023/09/23 11:03:47;;;;;;;3.72;1.38;;;16.60;53.30;;;;;;6041577;23;20566;-86
2023/09/23 11:06:16;;;;;;;2.50;2.20;;;16.50;56.90;;;;;;6063603;23;20174;-86
2023/09/23 11:08:43;;;;;;;2.00;1.40;;;16.70;52.90;;;;;;6062239;23;20191;-87
2023/09/23 11:11:10;;;;;;;1.92;1.40;;;16.70;52.90;;;;;;6064972;23;20177;-88
2023/09/23 11:13:37;;;;;;;1.17;1.08;;;16.70;51.00;;;;;;6065839;23;20184;-85
2023/09/23 11:16:11;;;;;;;3.47;1.88;;;16.60;45.20;;;;;;6063283;23;20169;-85
2023/09/23 11:18:38;;;;;;;2.05;1.17;;;16.80;43.80;;;;;;6064566;23;20213;-85
2023/09/23 11:21:05;;;;;;;1.70;1.30;;;16.60;48.20;;;;;;6065554;23;20176;-85
2023/09/23 11:23:32;;;;;;;2.17;1.27;;;16.60;44.50;;;;;;6064789;23;20195;-85
2023/09/23 11:25:59;;;;;;;2.38;1.00;;;16.60;46.90;;;;;;6065942;23;20257;-85
2023/09/23 11:28:27;;;;;;;2.63;1.17;;;16.50;49.50;;;;;;6065673;23;20187;-86
2023/09/23 11:30:55;;;;;;;1.95;1.10;;;16.50;41.00;;;;;;6063657;23;20177;-86
2023/09/23 11:33:24;;;;;;;1.30;1.20;;;16.50;43.30;;;;;;6063292;23;20178;-87
2023/09/23 11:35:51;;;;;;;1.77;1.20;;;16.30;38.70;;;;;;6064290;23;20183;-87
2023/09/23 11:38:20;;;;;;;2.55;1.20;;;16.40;43.00;;;;;;6064630;23;20174;-87
2023/09/23 11:40:47;;;;;;;1.23;1.05;;;16.40;42.60;;;;;;6063859;23;20772;-87
2023/09/23 11:43:15;;;;;;;2.28;1.20;;;16.40;42.10;;;;;;6061975;23;20207;-90
2023/09/23 11:45:42;;;;;;;1.50;1.40;;;16.30;38.70;;;;;;6064063;23;20174;-91
2023/09/23 11:48:09;;;;;;;1.40;1.20;;;16.50;38.80;;;;;;6063259;23;20177;-88
2023/09/23 11:50:38;;;;;;;1.75;1.52;;;16.70;38.90;;;;;;6064687;23;20676;-85
2023/09/23 11:53:05;;;;;;;1.88;1.40;;;16.60;39.90;;;;;;6062838;23;20185;-86
2023/09/23 11:55:35;;;;;;;2.58;1.20;;;16.50;41.80;;;;;;6036749;23;20184;-87
2023/09/23 11:58:02;;;;;;;1.48;1.30;;;16.50;41.20;;;;;;6061292;23;20236;-86
2023/09/23 12:00:29;;;;;;;1.75;1.30;;;16.20;43.90;;;;;;6064507;23;20656;-85
2023/09/23 12:02:57;;;;;;;1.60;1.10;;;16.00;47.60;;;;;;6063070;23;20444;-85
2023/09/23 12:05:28;;;;;;;2.70;1.48;;;16.10;47.60;;;;;;6038830;23;20178;-86
2023/09/23 12:07:58;;;;;;;1.20;1.10;;;16.40;42.60;;;;;;6064367;23;20616;-85
2023/09/23 12:10:25;;;;;;;1.42;1.30;;;16.50;40.00;;;;;;6060647;23;20272;-86
2023/09/23 12:12:52;;;;;;;1.50;1.30;;;16.70;37.40;;;;;;6063989;23;20173;-85
2023/09/23 12:15:19;;;;;;;1.33;1.20;;;16.60;39.00;;;;;;6013963;23;20181;-87
2023/09/23 12:17:46;;;;;;;1.55;1.30;;;16.50;41.20;;;;;;6064224;23;20196;-84
2023/09/23 12:20:14;;;;;;;1.30;1.10;;;16.80;38.40;;;;;;6064909;23;20667;-84
2023/09/23 12:22:41;;;;;;;1.40;1.30;;;17.10;35.30;;;;;;6037460;23;20188;-85
2023/09/23 12:25:10;;;;;;;0.98;0.90;;;17.00;41.30;;;;;;6064422;23;20216;-85
2023/09/23 12:27:37;;;;;;;1.40;1.30;;;16.90;44.10;;;;;;6038976;23;20265;-87
2023/09/23 12:30:05;;;;;;;2.67;1.20;;;17.30;35.90;;;;;;6064911;23;20181;-85
2023/09/23 12:32:33;;;;;;;1.73;1.10;;;17.30;36.40;;;;;;6062644;23;20174;-85
2023/09/23 12:34:59;;;;;;;2.90;1.00;;;17.30;37.40;;;;;;6039565;23;20513;-87
2023/09/23 12:37:27;;;;;;;1.52;1.23;;;17.40;34.50;;;;;;6064857;23;20195;-85
2023/09/23 12:39:55;;;;;;;1.35;1.20;;;17.30;37.70;;;;;;6064547;23;20201;-85
2023/09/23 12:42:24;;;;;;;2.13;1.23;;;17.20;37.20;;;;;;6062590;23;20512;-84
2023/09/23 12:44:51;;;;;;;1.30;1.10;;;17.00;37.30;;;;;;6062133;23;20177;-84
2023/09/23 12:47:18;;;;;;;2.00;1.20;;;16.90;37.80;;;;;;6064619;23;20260;-85
2023/09/23 12:49:45;;;;;;;1.67;1.15;;;17.00;37.00;;;;;;6062647;23;20176;-85
2023/09/23 12:52:12;;;;;;;2.28;1.30;;;16.90;33.20;;;;;;6064131;23;20229;-86